Sebastian, FL (32958)

11:19 AM EDT on July 24, 2016 (GMT -0400)
Spirals Weather 32958 | | Change Station

Elev 24 ft 27.80 °N, 80.47 °W | Updated 1 minute ago

Clear
Clear
88.3 °F
Feels Like 100 °F
N
0.0
Wind Variable Wind from NE
Gusts 7.0 mph

Today
High -- | Low -- °F
--% Chance of Precip.
Yesterday
High -- | Low -- °F
Precip. -- in
Pressure 30.06 in
Visibility 10.0 miles
Clouds Clear
Heat Index 100 °F
Dew Point 77 °F
Humidity 69%
Rainfall 0.00 in
Snow Depth Not available.
6:40 AM 8:15 PM
Waning Gibbous, 75% visible
METAR KVRB 241453Z VRB03KT 10SM CLR 31/22 A3006 RMK AO2 SLP177 T03060217 50001
Pressure 30.06 in
Visibility 10.0 miles
Clouds Clear
Heat Index 100 °F
Dew Point 77 °F
Humidity 69%
Rainfall 0.00 in
Snow Depth Not available.
6:40 AM 8:15 PM
Waning Gibbous, 75% visible
METAR KVRB 241453Z VRB03KT 10SM CLR 31/22 A3006 RMK AO2 SLP177 T03060217 50001

10-Day Weather Forecast

Almanac

Astronomy

Jul. 24, 2016 Rise Set
Actual Time
Civil Twilight
Nautical Twilight
Astronomical Twilight
Moon
Length of Visible Light
Length of Day
Tomorrow will be .
, % of the Moon is Illuminated

Today's Extremes

State Highs State Lows

Community

WunderPhotos

Upload Photos

1,927,076 photos uploaded!

WunderBlog® & News

Nearby

Air Quality

  Air Quality AQ Index Pollutant
Not available.

Snow Depth

Station Depth Elevation

Earthquake Activity

City Distance Mag. Time & Date
Minimum magnitude displayed is 2.5.

Coastal Water Temperatures

Place Temperature

Stations

Nearby Weather Stations

Station Location Temp. Windchill Dew Point Humidity Wind Precip. Elev Updated Type
                   

Watches & Warnings

There are currently no watches in effect.